Terminal Aerodrome Forecast
Issued by NWS Quad Cities IA IL

Home | Current Version | Previous Version | Text Only | Print | Product List | Glossary On
Versions: 1 2 3 4 5 6 7 8 9 10 11 12 13 14 15 16 17 18
000
FTUS43 KDVN 161900 AAA
TAFMLI
TAF AMD
KMLI 161901Z 1619/1718 19021G34KT P6SM SCT120 BKN250
     FM170000 15015G25KT P6SM BKN150
     FM170600 17012KT P6SM BKN100
     FM171500 27009KT P6SM SCT040 BKN120=

USA.gov is the U.S. government's official web portal to all federal, state and local government web resources and services.